Time;durP1;ratioP1;P1;durP2;ratioP2;P2;SDS_P1;SDS_P2;PMS_P1;PMS_P2;Temp;Humidity;BMP_temperature;BMP_pressure;BME280_temperature;BME280_humidity;BME280_pressure;Samples;Min_cycle;Max_cycle;Signal;HPM_P1;HPM_P2
2021/07/14 00:01:19;;;;;;;4.78;3.20;;;;;;;;;;5070245;28;20491;-77
2021/07/14 00:03:45;;;;;;;3.40;3.00;;;;;;;;;;5064028;28;20477;-76
2021/07/14 00:06:11;;;;;;;5.57;3.03;;;;;;;;;;5051966;28;20033;-77
2021/07/14 00:08:37;;;;;;;4.45;3.20;;;;;;;;;;5056773;28;20020;-77
2021/07/14 00:11:03;;;;;;;11.25;3.53;;;;;;;;;;5070476;28;20028;-76
2021/07/14 00:13:35;;;;;;;6.43;3.30;;;;;;;;;;5055738;28;20036;-77
2021/07/14 00:24:15;;;;;;;9.27;3.67;;;;;;;;;;5068457;28;20052;-78
2021/07/14 00:26:41;;;;;;;6.38;3.08;;;;;;;;;;5065094;28;20082;-76
2021/07/14 00:29:11;;;;;;;8.48;3.35;;;;;;;;;;5068073;28;20033;-76
2021/07/14 00:31:38;;;;;;;4.88;3.50;;;;;;;;;;5051866;28;20049;-77
2021/07/14 00:34:04;;;;;;;8.55;3.22;;;;;;;;;;5058346;28;20463;-77
2021/07/14 00:36:30;;;;;;;5.07;3.25;;;;;;;;;;5065910;28;20093;-77
2021/07/14 00:38:56;;;;;;;5.38;3.10;;;;;;;;;;5071802;28;20128;-77
2021/07/14 00:41:22;;;;;;;5.47;3.38;;;;;;;;;;5061102;28;20148;-75
2021/07/14 00:43:48;;;;;;;9.23;3.30;;;;;;;;;;5055715;28;20029;-78
2021/07/14 00:46:25;;;;;;;5.80;3.90;;;;;;;;;;5071140;28;20036;-78
2021/07/14 00:48:52;;;;;;;7.45;3.20;;;;;;;;;;5064179;28;20044;-78
2021/07/14 00:51:18;;;;;;;8.32;3.35;;;;;;;;;;5051392;28;20037;-79
2021/07/14 00:53:44;;;;;;;5.93;3.45;;;;;;;;;;5057648;28;20020;-77
2021/07/14 00:56:10;;;;;;;7.07;3.15;;;;;;;;;;5062074;28;20067;-78
2021/07/14 00:58:36;;;;;;;7.57;3.55;;;;;;;;;;5050137;28;20065;-78
2021/07/14 01:01:03;;;;;;;6.43;3.67;;;;;;;;;;5056959;28;20616;-76
2021/07/14 01:03:31;;;;;;;4.47;3.63;;;;;;;;;;5068164;28;20085;-77
2021/07/14 01:05:59;;;;;;;6.15;3.55;;;;;;;;;;5071450;28;20032;-77
2021/07/14 01:08:27;;;;;;;;;;;;;;;;;;5068876;28;20025;-76
2021/07/14 01:10:59;;;;;;;6.72;3.30;;;;;;;;;;5050198;28;19909;-77
2021/07/14 01:13:35;;;;;;;8.68;3.72;;;;;;;;;;5059002;28;20032;-76
2021/07/14 01:16:03;;;;;;;9.32;3.83;;;;;;;;;;5049677;28;20025;-77
2021/07/14 01:18:39;;;;;;;12.82;3.90;;;;;;;;;;5054592;28;20021;-77
2021/07/14 01:21:15;;;;;;;5.35;3.78;;;;;;;;;;5070709;28;20093;-78
2021/07/14 01:23:41;;;;;;;13.70;3.67;;;;;;;;;;5068447;28;20070;-77
2021/07/14 01:26:12;;;;;;;4.57;3.65;;;;;;;;;;5063538;28;20386;-77
2021/07/14 01:28:40;;;;;;;8.75;3.45;;;;;;;;;;5065821;28;20032;-77
2021/07/14 01:31:07;;;;;;;5.88;3.35;;;;;;;;;;5067476;28;20055;-77
2021/07/14 01:33:36;;;;;;;5.20;3.63;;;;;;;;;;5070569;28;20033;-76
2021/07/14 01:36:05;;;;;;;7.22;3.47;;;;;;;;;;5070306;28;20111;-77
2021/07/14 01:38:34;;;;;;;6.43;3.22;;;;;;;;;;5059847;28;20022;-77
2021/07/14 01:41:01;;;;;;;5.30;3.53;;;;;;;;;;5030697;28;20022;-76
2021/07/14 01:43:31;;;;;;;5.78;3.40;;;;;;;;;;5030515;28;20388;-75
2021/07/14 01:45:57;;;;;;;5.55;3.47;;;;;;;;;;5030297;28;20034;-76
2021/07/14 01:48:24;;;;;;;3.97;3.10;;;;;;;;;;5033442;28;20035;-76
2021/07/14 01:50:51;;;;;;;4.73;3.23;;;;;;;;;;5054201;28;20352;-77
2021/07/14 01:53:19;;;;;;;5.70;2.88;;;;;;;;;;5049606;28;20037;-76
2021/07/14 01:55:46;;;;;;;4.63;3.08;;;;;;;;;;5051045;28;20033;-77
2021/07/14 01:58:13;;;;;;;4.47;3.20;;;;;;;;;;5067763;28;20043;-77
2021/07/14 02:00:39;;;;;;;9.38;3.13;;;;;;;;;;5061450;28;20094;-77
2021/07/14 02:03:15;;;;;;;4.95;3.25;;;;;;;;;;5047942;28;20483;-77
2021/07/14 02:05:43;;;;;;;6.82;3.15;;;;;;;;;;5030415;28;20029;-78
2021/07/14 02:08:09;;;;;;;8.15;3.40;;;;;;;;;;5030439;28;20560;-77
2021/07/14 02:10:36;;;;;;;6.10;3.47;;;;;;;;;;5056738;28;20028;-77
2021/07/14 02:13:02;;;;;;;7.50;3.13;;;;;;;;;;5067918;28;20051;-78
2021/07/14 02:15:29;;;;;;;5.13;3.13;;;;;;;;;;5050445;28;20025;-78
2021/07/14 02:18:03;;;;;;;3.63;3.03;;;;;;;;;;5050778;28;20120;-77
2021/07/14 02:20:29;;;;;;;7.70;3.28;;;;;;;;;;5070107;28;20025;-78
2021/07/14 02:22:55;;;;;;;5.85;3.00;;;;;;;;;;5068431;28;20032;-79
2021/07/14 02:25:22;;;;;;;8.50;3.00;;;;;;;;;;5057932;28;20045;-78
2021/07/14 02:27:48;;;;;;;3.55;2.85;;;;;;;;;;5049940;28;20104;-76
2021/07/14 02:30:19;;;;;;;6.03;3.10;;;;;;;;;;5056403;28;20036;-78
2021/07/14 02:33:08;;;;;;;7.28;3.20;;;;;;;;;;5048449;28;20017;-77
2021/07/14 02:35:37;;;;;;;4.82;3.00;;;;;;;;;;5035685;28;20052;-77
2021/07/14 02:38:05;;;;;;;4.30;2.63;;;;;;;;;;5048470;28;20121;-77
2021/07/14 02:40:50;;;;;;;4.20;2.90;;;;;;;;;;5068328;28;20033;-77
2021/07/14 02:43:20;;;;;;;4.85;2.72;;;;;;;;;;5066070;28;20036;-77
2021/07/14 02:45:47;;;;;;;4.22;2.70;;;;;;;;;;5049242;28;20395;-76
2021/07/14 02:48:13;;;;;;;7.28;2.70;;;;;;;;;;5049805;28;20489;-78
2021/07/14 02:50:40;;;;;;;4.43;2.88;;;;;;;;;;5049680;28;20444;-77
2021/07/14 02:53:18;;;;;;;5.88;3.00;;;;;;;;;;5068701;28;20459;-76
2021/07/14 02:55:47;;;;;;;5.28;2.92;;;;;;;;;;5056999;28;20040;-77
2021/07/14 02:58:14;;;;;;;5.57;2.90;;;;;;;;;;5049640;28;20028;-76
2021/07/14 03:00:40;;;;;;;5.00;3.00;;;;;;;;;;5056776;28;20078;-78
2021/07/14 03:03:07;;;;;;;4.67;2.83;;;;;;;;;;5069287;28;20060;-77
2021/07/14 03:05:34;;;;;;;7.67;3.00;;;;;;;;;;5044430;28;20048;-77
2021/07/14 03:08:02;;;;;;;6.27;2.80;;;;;;;;;;5069821;28;20024;-77
2021/07/14 03:10:31;;;;;;;5.32;2.95;;;;;;;;;;5047894;28;20286;-77
2021/07/14 03:13:02;;;;;;;5.32;2.85;;;;;;;;;;5048688;28;20487;-77
2021/07/14 03:15:28;;;;;;;5.22;2.83;;;;;;;;;;5050842;28;20045;-75
2021/07/14 03:17:54;;;;;;;3.88;2.88;;;;;;;;;;5059676;28;20112;-77
2021/07/14 03:20:21;;;;;;;4.35;2.78;;;;;;;;;;5056490;28;20024;-76
2021/07/14 03:22:48;;;;;;;6.53;3.00;;;;;;;;;;5062358;28;20036;-77
2021/07/14 03:25:15;;;;;;;4.85;2.88;;;;;;;;;;5064630;28;20077;-77
2021/07/14 03:27:42;;;;;;;5.57;2.95;;;;;;;;;;5069698;28;20031;-76
2021/07/14 03:30:09;;;;;;;3.78;2.75;;;;;;;;;;5072631;28;20028;-76
2021/07/14 03:32:35;;;;;;;4.28;2.88;;;;;;;;;;5061659;28;20025;-76
2021/07/14 03:35:01;;;;;;;5.88;2.97;;;;;;;;;;5071541;28;20094;-77
2021/07/14 03:37:27;;;;;;;7.20;3.17;;;;;;;;;;5072760;28;20067;-77
2021/07/14 03:39:54;;;;;;;5.25;3.15;;;;;;;;;;5056230;28;20083;-77
2021/07/14 03:42:20;;;;;;;8.02;3.00;;;;;;;;;;5051502;28;20083;-77
2021/07/14 03:44:48;;;;;;;6.20;3.15;;;;;;;;;;5066216;28;20090;-77
2021/07/14 03:47:14;;;;;;;8.13;3.28;;;;;;;;;;5072522;28;20399;-78
2021/07/14 03:49:41;;;;;;;6.37;3.10;;;;;;;;;;5067027;28;20021;-78
2021/07/14 03:52:07;;;;;;;5.20;2.92;;;;;;;;;;5070177;28;20067;-77
2021/07/14 03:54:34;;;;;;;6.18;3.10;;;;;;;;;;5069841;28;20039;-78
2021/07/14 03:57:00;;;;;;;7.68;3.03;;;;;;;;;;5064997;28;20072;-77
2021/07/14 03:59:26;;;;;;;5.38;2.85;;;;;;;;;;5072463;28;20032;-77
2021/07/14 04:01:54;;;;;;;5.32;3.00;;;;;;;;;;5061456;28;20339;-78
2021/07/14 04:04:21;;;;;;;5.28;2.40;;;;;;;;;;5052306;28;20033;-78
2021/07/14 04:06:49;;;;;;;5.13;2.65;;;;;;;;;;5055646;28;20049;-77
2021/07/14 04:09:19;;;;;;;4.82;2.60;;;;;;;;;;5060932;28;20025;-77
2021/07/14 04:11:45;;;;;;;3.42;2.33;;;;;;;;;;5072234;28;20087;-77
2021/07/14 04:14:11;;;;;;;6.28;2.65;;;;;;;;;;5071115;28;20120;-77
2021/07/14 04:16:37;;;;;;;5.90;2.72;;;;;;;;;;5071996;28;20095;-76
2021/07/14 04:19:03;;;;;;;4.43;2.53;;;;;;;;;;5070192;28;20428;-76
2021/07/14 04:21:29;;;;;;;3.13;2.50;;;;;;;;;;5062355;28;20032;-78
2021/07/14 04:23:56;;;;;;;5.55;3.03;;;;;;;;;;5053077;28;20028;-78
2021/07/14 04:26:22;;;;;;;4.03;2.70;;;;;;;;;;5060225;28;20106;-78
2021/07/14 04:28:48;;;;;;;6.95;2.92;;;;;;;;;;5052027;28;20124;-78
2021/07/14 04:31:14;;;;;;;5.10;3.10;;;;;;;;;;5052963;28;20052;-77
2021/07/14 04:33:41;;;;;;;3.35;2.55;;;;;;;;;;5065540;28;20415;-78
2021/07/14 04:36:07;;;;;;;4.15;2.70;;;;;;;;;;5070113;28;20105;-77
2021/07/14 04:38:33;;;;;;;3.63;2.42;;;;;;;;;;5066738;28;20438;-77
2021/07/14 04:40:59;;;;;;;5.85;2.70;;;;;;;;;;5051771;28;20490;-78
2021/07/14 04:43:26;;;;;;;5.65;2.38;;;;;;;;;;5053537;28;20029;-77
2021/07/14 04:45:52;;;;;;;5.90;2.53;;;;;;;;;;5071640;28;20402;-77
2021/07/14 04:48:18;;;;;;;6.38;3.00;;;;;;;;;;5069715;28;20037;-76
2021/07/14 04:50:44;;;;;;;6.35;2.72;;;;;;;;;;5051789;28;20368;-78
2021/07/14 04:53:10;;;;;;;6.60;2.90;;;;;;;;;;5052869;28;20108;-77
2021/07/14 04:55:35;;;;;;;6.68;2.75;;;;;;;;;;5062377;28;20029;-77
2021/07/14 04:58:01;;;;;;;5.28;3.00;;;;;;;;;;5063299;28;20502;-77
2021/07/14 05:00:27;;;;;;;3.13;2.58;;;;;;;;;;5053144;28;20025;-76
2021/07/14 05:02:54;;;;;;;5.05;2.97;;;;;;;;;;5069452;28;20079;-77
2021/07/14 05:05:20;;;;;;;3.63;2.60;;;;;;;;;;5071257;28;20141;-77
2021/07/14 05:07:47;;;;;;;5.65;3.13;;;;;;;;;;5071236;28;20017;-78
2021/07/14 05:10:13;;;;;;;;;;;;;;;;;;5068195;28;20094;-78
2021/07/14 05:12:41;;;;;;;6.60;2.80;;;;;;;;;;5071189;28;19904;-77
2021/07/14 05:15:07;;;;;;;6.55;2.70;;;;;;;;;;5052482;28;20037;-76
2021/07/14 05:17:33;;;;;;;3.67;2.40;;;;;;;;;;5051505;28;20021;-76
2021/07/14 05:19:59;;;;;;;6.45;2.50;;;;;;;;;;5049655;28;20094;-76
2021/07/14 05:22:25;;;;;;;3.97;2.30;;;;;;;;;;5050766;28;20029;-77
2021/07/14 05:24:51;;;;;;;5.90;2.40;;;;;;;;;;5067338;28;20025;-77
2021/07/14 05:27:18;;;;;;;3.00;2.08;;;;;;;;;;5052078;28;20044;-77
2021/07/14 05:29:44;;;;;;;4.53;3.03;;;;;;;;;;5053567;28;20047;-77
2021/07/14 05:32:10;;;;;;;2.88;2.00;;;;;;;;;;5053373;28;20142;-77
2021/07/14 05:34:35;;;;;;;3.30;2.45;;;;;;;;;;5051002;28;20470;-77
2021/07/14 05:37:01;;;;;;;3.22;2.28;;;;;;;;;;5069669;28;20552;-78
2021/07/14 05:39:27;;;;;;;7.53;2.70;;;;;;;;;;5070159;28;20027;-77
2021/07/14 05:41:53;;;;;;;4.95;2.33;;;;;;;;;;5070899;28;20059;-78
2021/07/14 05:44:19;;;;;;;4.07;2.55;;;;;;;;;;5061136;28;20463;-78
2021/07/14 05:46:46;;;;;;;4.57;2.65;;;;;;;;;;5070308;28;20031;-78
2021/07/14 05:49:12;;;;;;;3.75;2.13;;;;;;;;;;5059939;28;20484;-77
2021/07/14 05:51:38;;;;;;;4.60;2.70;;;;;;;;;;5064345;28;20294;-77
2021/07/14 05:54:04;;;;;;;4.13;2.50;;;;;;;;;;5060380;28;20539;-76
2021/07/14 05:56:30;;;;;;;3.55;2.20;;;;;;;;;;5058372;28;20032;-78
2021/07/14 05:58:56;;;;;;;3.92;2.20;;;;;;;;;;5055965;28;20033;-78
2021/07/14 06:01:22;;;;;;;5.72;2.47;;;;;;;;;;5059190;28;20423;-77
2021/07/14 06:03:49;;;;;;;3.50;2.42;;;;;;;;;;5064146;28;20056;-78
2021/07/14 06:06:16;;;;;;;9.07;2.60;;;;;;;;;;5069063;28;20040;-78
2021/07/14 06:08:42;;;;;;;3.17;2.40;;;;;;;;;;5064375;28;20360;-77
2021/07/14 06:11:08;;;;;;;6.13;2.50;;;;;;;;;;5049938;28;20074;-76
2021/07/14 06:13:34;;;;;;;3.65;2.33;;;;;;;;;;5050872;28;20368;-78
2021/07/14 06:16:00;;;;;;;9.05;2.65;;;;;;;;;;5054214;28;20119;-78
2021/07/14 06:18:26;;;;;;;3.45;2.42;;;;;;;;;;5062938;28;20029;-79
2021/07/14 06:20:52;;;;;;;4.05;2.35;;;;;;;;;;5048440;28;20040;-78
2021/07/14 06:23:18;;;;;;;6.80;2.30;;;;;;;;;;5049618;28;20060;-77
2021/07/14 06:25:44;;;;;;;3.00;2.10;;;;;;;;;;5068118;28;20032;-78
2021/07/14 06:28:13;;;;;;;2.65;2.30;;;;;;;;;;5056562;28;20029;-78
2021/07/14 06:30:40;;;;;;;4.43;2.20;;;;;;;;;;5069883;28;20381;-78
2021/07/14 06:33:06;;;;;;;5.28;2.33;;;;;;;;;;5066439;28;20505;-77
2021/07/14 06:35:33;;;;;;;5.40;2.50;;;;;;;;;;5063636;28;20029;-79
2021/07/14 06:37:59;;;;;;;3.85;2.25;;;;;;;;;;5056277;28;20104;-79
2021/07/14 06:40:25;;;;;;;6.30;2.65;;;;;;;;;;5057720;28;20040;-78
2021/07/14 06:42:51;;;;;;;5.82;2.40;;;;;;;;;;5048193;28;20034;-79
2021/07/14 06:45:18;;;;;;;3.97;2.42;;;;;;;;;;5050025;28;20391;-78
2021/07/14 06:47:44;;;;;;;5.82;2.42;;;;;;;;;;5049768;28;20078;-78
2021/07/14 06:50:12;;;;;;;7.05;2.50;;;;;;;;;;5065233;28;20502;-78
2021/07/14 06:52:38;;;;;;;4.25;2.10;;;;;;;;;;5069565;28;20044;-78
2021/07/14 06:55:05;;;;;;;7.40;2.80;;;;;;;;;;5051548;28;20048;-78
2021/07/14 06:57:31;;;;;;;5.90;2.50;;;;;;;;;;5059457;28;20406;-78
2021/07/14 06:59:57;;;;;;;8.15;2.47;;;;;;;;;;5050171;28;20024;-77
2021/07/14 07:02:23;;;;;;;4.80;2.28;;;;;;;;;;5070605;28;20464;-78
2021/07/14 07:04:49;;;;;;;3.72;2.50;;;;;;;;;;5063426;28;20021;-78
2021/07/14 07:07:15;;;;;;;3.42;2.30;;;;;;;;;;5073768;28;20170;-79
2021/07/14 07:09:41;;;;;;;6.65;2.22;;;;;;;;;;5072298;28;20021;-79
2021/07/14 07:12:07;;;;;;;2.55;2.17;;;;;;;;;;5071475;28;20119;-77
2021/07/14 07:14:33;;;;;;;10.65;2.50;;;;;;;;;;5059469;28;20037;-77
2021/07/14 07:16:59;;;;;;;7.03;2.50;;;;;;;;;;5072912;28;20093;-79
2021/07/14 07:19:25;;;;;;;4.05;2.40;;;;;;;;;;5060740;28;20464;-79
2021/07/14 07:21:51;;;;;;;8.07;3.28;;;;;;;;;;5050855;28;20104;-78
2021/07/14 07:24:17;;;;;;;4.07;2.78;;;;;;;;;;5045156;28;20368;-76
2021/07/14 07:26:47;;;;;;;8.15;2.70;;;;;;;;;;5055215;28;20037;-76
2021/07/14 07:29:14;;;;;;;8.38;2.72;;;;;;;;;;5061071;28;20016;-79
2021/07/14 07:31:40;;;;;;;4.15;2.30;;;;;;;;;;5062889;28;20491;-77
2021/07/14 07:34:06;;;;;;;5.63;2.67;;;;;;;;;;5061803;28;20075;-76
2021/07/14 07:36:32;;;;;;;4.88;2.15;;;;;;;;;;5071710;28;20056;-77
2021/07/14 07:38:58;;;;;;;4.50;2.60;;;;;;;;;;5055914;28;20498;-77
2021/07/14 07:41:24;;;;;;;8.20;2.50;;;;;;;;;;5049349;28;20021;-77
2021/07/14 07:43:51;;;;;;;5.00;2.60;;;;;;;;;;5038980;28;20132;-76
2021/07/14 07:46:17;;;;;;;5.85;2.83;;;;;;;;;;5050289;28;20418;-78
2021/07/14 07:48:43;;;;;;;4.85;2.55;;;;;;;;;;5050202;28;20021;-76
2021/07/14 07:51:09;;;;;;;11.15;2.97;;;;;;;;;;5056753;28;20063;-78
2021/07/14 07:53:35;;;;;;;7.40;3.05;;;;;;;;;;5054146;28;20033;-78
2021/07/14 07:56:02;;;;;;;5.05;2.33;;;;;;;;;;5050009;28;20552;-80
2021/07/14 07:58:28;;;;;;;3.37;2.43;;;;;;;;;;5053443;28;20120;-81
2021/07/14 08:00:54;;;;;;;5.60;2.50;;;;;;;;;;5048840;28;20021;-82
2021/07/14 08:03:21;;;;;;;9.10;2.40;;;;;;;;;;5054108;28;20105;-79
2021/07/14 08:05:47;;;;;;;4.95;2.50;;;;;;;;;;5063705;28;20057;-81
2021/07/14 08:08:13;;;;;;;4.05;2.60;;;;;;;;;;5038670;28;20055;-81
2021/07/14 08:10:39;;;;;;;16.48;2.88;;;;;;;;;;5049486;28;20071;-80
2021/07/14 08:13:05;;;;;;;4.35;2.42;;;;;;;;;;5051815;28;20037;-81
2021/07/14 08:15:32;;;;;;;5.40;2.53;;;;;;;;;;5050451;28;20395;-81
2021/07/14 08:17:58;;;;;;;3.77;2.27;;;;;;;;;;5047652;28;20317;-81
2021/07/14 08:20:24;;;;;;;11.90;2.40;;;;;;;;;;5037509;28;20029;-81
2021/07/14 08:22:51;;;;;;;5.90;2.35;;;;;;;;;;5038740;28;20029;-82
2021/07/14 08:25:17;;;;;;;4.25;2.40;;;;;;;;;;5050355;28;20057;-81
2021/07/14 08:27:44;;;;;;;2.50;2.30;;;;;;;;;;5051607;28;20471;-80
2021/07/14 08:30:11;;;;;;;8.43;2.70;;;;;;;;;;5050783;28;20033;-81
2021/07/14 08:32:37;;;;;;;3.65;2.55;;;;;;;;;;5051206;28;20033;-81
2021/07/14 08:35:03;;;;;;;3.78;2.35;;;;;;;;;;5051682;28;20040;-79
2021/07/14 08:37:29;;;;;;;3.88;2.42;;;;;;;;;;5052270;28;20020;-79
2021/07/14 08:39:56;;;;;;;3.63;2.40;;;;;;;;;;5051970;28;20096;-79
2021/07/14 08:42:24;;;;;;;5.47;2.45;;;;;;;;;;5051178;28;20017;-80
2021/07/14 08:44:50;;;;;;;4.75;2.42;;;;;;;;;;5052441;28;20074;-80
2021/07/14 08:47:17;;;;;;;5.72;2.97;;;;;;;;;;5052477;28;20045;-80
2021/07/14 08:49:44;;;;;;;7.15;2.83;;;;;;;;;;5051415;28;20036;-79
2021/07/14 08:52:10;;;;;;;9.15;3.00;;;;;;;;;;5036744;28;20110;-81
2021/07/14 08:54:43;;;;;;;5.35;2.70;;;;;;;;;;5046221;28;20028;-82
2021/07/14 08:57:09;;;;;;;8.15;3.90;;;;;;;;;;5050295;28;20510;-81
2021/07/14 08:59:35;;;;;;;3.67;2.87;;;;;;;;;;5051730;28;20498;-79
2021/07/14 09:02:01;;;;;;;10.55;3.25;;;;;;;;;;5066704;28;20032;-82
2021/07/14 09:04:27;;;;;;;8.13;3.33;;;;;;;;;;5069455;28;20055;-81
2021/07/14 09:06:53;;;;;;;8.77;4.03;;;;;;;;;;5069863;28;20043;-81
2021/07/14 09:09:19;;;;;;;9.43;3.67;;;;;;;;;;5041632;28;20018;-81
2021/07/14 09:11:51;;;;;;;10.05;3.50;;;;;;;;;;5031312;28;20118;-80
2021/07/14 09:14:36;;;;;;;11.73;3.63;;;;;;;;;;5031225;28;20029;-81
2021/07/14 09:17:23;;;;;;;9.02;4.22;;;;;;;;;;5031267;28;20562;-81
2021/07/14 09:19:50;;;;;;;10.85;4.20;;;;;;;;;;5029469;28;20032;-81
2021/07/14 09:22:23;;;;;;;12.80;4.20;;;;;;;;;;5039476;28;20447;-83
2021/07/14 09:24:49;;;;;;;10.95;4.18;;;;;;;;;;5050237;28;20060;-82
2021/07/14 09:27:16;;;;;;;8.23;3.95;;;;;;;;;;5042130;28;20445;-80
2021/07/14 09:30:02;;;;;;;12.23;4.45;;;;;;;;;;5030983;28;20040;-83
2021/07/14 09:32:28;;;;;;;11.88;4.43;;;;;;;;;;5029933;28;20116;-82
2021/07/14 09:34:54;;;;;;;12.32;3.90;;;;;;;;;;5029989;28;20116;-82
2021/07/14 09:37:20;;;;;;;15.18;4.40;;;;;;;;;;5041076;28;20111;-82
2021/07/14 09:39:46;;;;;;;12.27;4.78;;;;;;;;;;5049758;28;20025;-82
2021/07/14 09:42:13;;;;;;;8.65;4.10;;;;;;;;;;5050482;28;20337;-83
2021/07/14 09:44:46;;;;;;;10.02;4.03;;;;;;;;;;5049544;28;20037;-82
2021/07/14 09:47:18;;;;;;;11.70;3.85;;;;;;;;;;5041126;28;20076;-82
2021/07/14 09:49:44;;;;;;;9.77;3.53;;;;;;;;;;5030839;28;20021;-82
2021/07/14 09:52:11;;;;;;;14.70;4.50;;;;;;;;;;5028935;28;20029;-83
2021/07/14 09:54:37;;;;;;;;;;;;;;;;;;5031167;28;20041;-84
2021/07/14 09:57:16;;;;;;;11.40;4.30;;;;;;;;;;5031458;28;19963;-81
2021/07/14 09:59:43;;;;;;;12.20;4.57;;;;;;;;;;5030936;28;20112;-81
2021/07/14 10:02:13;;;;;;;13.00;4.50;;;;;;;;;;5029330;28;20395;-79
2021/07/14 10:04:40;;;;;;;8.93;4.20;;;;;;;;;;5042125;28;20040;-83
2021/07/14 10:07:09;;;;;;;13.38;3.70;;;;;;;;;;5050098;28;20025;-81
2021/07/14 10:09:35;;;;;;;11.73;4.15;;;;;;;;;;5048227;28;20372;-83
2021/07/14 10:12:20;;;;;;;8.67;3.33;;;;;;;;;;5048959;28;20063;-82
2021/07/14 10:14:46;;;;;;;10.45;3.47;;;;;;;;;;5036470;28;20459;-80
2021/07/14 10:17:12;;;;;;;10.50;3.65;;;;;;;;;;5030546;28;20108;-82
2021/07/14 10:19:38;;;;;;;11.32;3.28;;;;;;;;;;5030109;28;20484;-79
2021/07/14 10:22:04;;;;;;;6.75;3.50;;;;;;;;;;5029715;28;20141;-78
2021/07/14 10:24:30;;;;;;;9.50;4.40;;;;;;;;;;5040864;28;20029;-78
2021/07/14 10:26:56;;;;;;;10.02;4.20;;;;;;;;;;5051931;28;20279;-79
2021/07/14 10:29:24;;;;;;;12.48;4.78;;;;;;;;;;5048413;28;20066;-79
2021/07/14 10:31:51;;;;;;;16.50;5.63;;;;;;;;;;5051455;28;20017;-79
2021/07/14 10:34:20;;;;;;;13.15;5.60;;;;;;;;;;5051234;28;20025;-78
2021/07/14 10:36:50;;;;;;;25.40;5.75;;;;;;;;;;5042218;28;20055;-78
2021/07/14 10:39:19;;;;;;;12.85;4.50;;;;;;;;;;5031927;28;20590;-78
2021/07/14 10:41:45;;;;;;;10.05;4.18;;;;;;;;;;5033859;28;20037;-78
2021/07/14 10:44:14;;;;;;;9.97;4.00;;;;;;;;;;5033072;28;20075;-77
2021/07/14 10:46:40;;;;;;;9.90;4.32;;;;;;;;;;5043048;28;20136;-78
2021/07/14 10:49:07;;;;;;;8.45;3.85;;;;;;;;;;5053892;28;20100;-75
2021/07/14 10:51:34;;;;;;;13.60;4.30;;;;;;;;;;5053586;28;20101;-78
2021/07/14 10:54:02;;;;;;;9.30;4.13;;;;;;;;;;5050769;28;20476;-79
2021/07/14 10:56:29;;;;;;;12.15;4.47;;;;;;;;;;5054211;28;20083;-79
2021/07/14 10:58:56;;;;;;;11.38;4.30;;;;;;;;;;5050020;28;20052;-78
2021/07/14 11:01:39;;;;;;;10.02;3.40;;;;;;;;;;5046739;28;20037;-77
2021/07/14 11:04:05;;;;;;;8.30;3.67;;;;;;;;;;5052409;28;20041;-78
2021/07/14 11:06:31;;;;;;;7.90;3.47;;;;;;;;;;5052341;28;20048;-77
2021/07/14 11:08:57;;;;;;;12.50;4.15;;;;;;;;;;5050383;28;20460;-77
2021/07/14 11:11:24;;;;;;;13.38;3.58;;;;;;;;;;5051898;28;20051;-80
2021/07/14 11:14:06;;;;;;;9.30;4.00;;;;;;;;;;5048854;28;20063;-79
2021/07/14 11:16:36;;;;;;;8.27;3.58;;;;;;;;;;5040975;28;20032;-80
2021/07/14 11:19:14;;;;;;;15.70;4.30;;;;;;;;;;5033455;28;20026;-78
2021/07/14 11:21:54;;;;;;;13.75;4.43;;;;;;;;;;5031394;28;20095;-82
2021/07/14 11:24:51;;;;;;;9.07;3.85;;;;;;;;;;5031609;28;20048;-78
2021/07/14 11:27:23;;;;;;;10.70;3.97;;;;;;;;;;5030435;28;20080;-79
2021/07/14 11:29:50;;;;;;;12.95;4.18;;;;;;;;;;5049897;28;20474;-80
2021/07/14 11:32:35;;;;;;;10.00;4.38;;;;;;;;;;5052607;28;20068;-80
2021/07/14 11:35:01;;;;;;;10.15;4.05;;;;;;;;;;5070317;28;20028;-80
2021/07/14 11:37:31;;;;;;;8.23;3.47;;;;;;;;;;5071945;28;20028;-80
2021/07/14 11:40:17;;;;;;;14.48;4.05;;;;;;;;;;5073318;28;20111;-80
2021/07/14 11:42:56;;;;;;;6.95;3.45;;;;;;;;;;5071115;28;20052;-81
2021/07/14 11:45:35;;;;;;;12.32;4.00;;;;;;;;;;5030694;28;20124;-80
2021/07/14 11:48:03;;;;;;;8.60;3.58;;;;;;;;;;5034355;28;20195;-78
2021/07/14 11:50:48;;;;;;;9.57;3.90;;;;;;;;;;5033250;28;20053;-77
2021/07/14 11:53:44;;;;;;;9.15;3.53;;;;;;;;;;5031663;28;20060;-80
2021/07/14 11:56:33;;;;;;;8.43;3.53;;;;;;;;;;5026462;28;20065;-79
2021/07/14 11:59:08;;;;;;;8.32;3.83;;;;;;;;;;5041033;28;20107;-79
2021/07/14 12:01:34;;;;;;;9.25;3.90;;;;;;;;;;5050944;28;20028;-79
2021/07/14 12:04:04;;;;;;;10.75;4.38;;;;;;;;;;5051136;28;20049;-78
2021/07/14 12:06:49;;;;;;;10.85;4.93;;;;;;;;;;5051847;28;20036;-81
2021/07/14 12:09:16;;;;;;;12.75;4.82;;;;;;;;;;5041943;28;20022;-80
2021/07/14 12:11:46;;;;;;;10.48;5.05;;;;;;;;;;5031297;28;20361;-79
2021/07/14 12:14:17;;;;;;;9.60;4.53;;;;;;;;;;5032062;28;20116;-79
2021/07/14 12:16:47;;;;;;;14.73;4.82;;;;;;;;;;5030441;28;20030;-81
2021/07/14 12:19:13;;;;;;;9.40;4.03;;;;;;;;;;5046799;28;20025;-80
2021/07/14 12:21:40;;;;;;;10.05;4.55;;;;;;;;;;5053392;28;20029;-80
2021/07/14 12:24:07;;;;;;;9.10;4.07;;;;;;;;;;5054983;28;20044;-79
2021/07/14 12:26:33;;;;;;;;;;;;;;;;;;5056107;28;20099;-80
2021/07/14 12:29:19;;;;;;;13.02;5.28;;;;;;;;;;5042450;28;19916;-79
2021/07/14 12:31:48;;;;;;;6.97;4.18;;;;;;;;;;5055660;28;20080;-78
2021/07/14 12:34:21;;;;;;;14.23;4.38;;;;;;;;;;5071231;28;20509;-80
2021/07/14 12:36:47;;;;;;;15.18;4.93;;;;;;;;;;5072230;28;20387;-78
2021/07/14 12:39:13;;;;;;;14.87;4.50;;;;;;;;;;5073802;28;20016;-79
2021/07/14 12:41:39;;;;;;;11.32;4.13;;;;;;;;;;5063539;28;20040;-80
2021/07/14 12:44:07;;;;;;;11.10;4.50;;;;;;;;;;5039492;28;20033;-80
2021/07/14 12:46:33;;;;;;;15.05;4.60;;;;;;;;;;5032272;28;20122;-79
2021/07/14 12:49:09;;;;;;;15.23;4.97;;;;;;;;;;5033204;28;20124;-82
2021/07/14 12:51:35;;;;;;;;;;;;;;;;;;5034962;28;20034;-80
2021/07/14 12:54:01;;;;;;;;;;;;;;;;;;5044818;28;19931;-81
2021/07/14 12:56:28;;;;;;;15.32;4.25;;;;;;;;;;5052613;28;19955;-82
2021/07/14 12:59:04;;;;;;;7.05;3.80;;;;;;;;;;5052940;28;20509;-83
2021/07/14 13:01:31;;;;;;;11.13;3.55;;;;;;;;;;5046929;28;20032;-83
2021/07/14 13:03:57;;;;;;;9.40;3.88;;;;;;;;;;5049661;28;20037;-84
2021/07/14 13:06:24;;;;;;;8.73;3.90;;;;;;;;;;5051027;28;20033;-82
2021/07/14 13:08:51;;;;;;;7.88;3.90;;;;;;;;;;5050109;28;20032;-82
2021/07/14 13:11:17;;;;;;;;;;;;;;;;;;5051401;28;20032;-83
2021/07/14 13:13:46;;;;;;;11.63;4.20;;;;;;;;;;5050995;28;20280;-83
2021/07/14 13:16:12;;;;;;;14.70;4.13;;;;;;;;;;5049183;28;20450;-82
2021/07/14 13:18:41;;;;;;;13.23;4.03;;;;;;;;;;5049811;28;20355;-82
2021/07/14 13:21:07;;;;;;;9.98;4.20;;;;;;;;;;5049939;28;20090;-81
2021/07/14 13:23:35;;;;;;;9.20;4.57;;;;;;;;;;5051098;28;20029;-82
2021/07/14 13:26:01;;;;;;;12.90;4.90;;;;;;;;;;5048934;28;20158;-84
2021/07/14 13:28:29;;;;;;;10.27;4.90;;;;;;;;;;5050515;28;20537;-82
2021/07/14 13:31:02;;;;;;;18.52;5.55;;;;;;;;;;5050166;28;20025;-83
2021/07/14 13:33:35;;;;;;;13.80;5.18;;;;;;;;;;5050823;28;20145;-83
2021/07/14 13:36:02;;;;;;;17.92;6.03;;;;;;;;;;5050787;28;20458;-83
2021/07/14 13:38:28;;;;;;;;;;;;;;;;;;5050943;28;20028;-83
2021/07/14 13:41:01;;;;;;;16.75;6.75;;;;;;;;;;5048893;28;19905;-83
2021/07/14 13:43:37;;;;;;;14.48;6.72;;;;;;;;;;5049179;28;20032;-83
2021/07/14 13:46:03;;;;;;;14.63;5.88;;;;;;;;;;5050265;28;20045;-82
2021/07/14 13:48:29;;;;;;;14.40;7.17;;;;;;;;;;5049054;28;20029;-82
2021/07/14 13:50:55;;;;;;;17.33;6.53;;;;;;;;;;5038119;28;20028;-82
2021/07/14 13:53:28;;;;;;;15.43;6.20;;;;;;;;;;5029178;28;20044;-85
2021/07/14 13:56:09;;;;;;;16.33;5.55;;;;;;;;;;5031740;28;20033;-82
2021/07/14 13:58:35;;;;;;;15.50;5.70;;;;;;;;;;5033609;28;20108;-83
2021/07/14 14:01:02;;;;;;;14.35;5.72;;;;;;;;;;5032158;28;20028;-83
2021/07/14 14:03:28;;;;;;;17.15;6.05;;;;;;;;;;5033565;28;20506;-83
2021/07/14 14:06:07;;;;;;;13.32;5.18;;;;;;;;;;5038774;28;20379;-83
2021/07/14 14:08:33;;;;;;;13.60;5.25;;;;;;;;;;5046592;28;20171;-84
2021/07/14 14:10:59;;;;;;;;;;;;;;;;;;5034075;28;20026;-85
2021/07/14 14:13:32;;;;;;;10.23;4.75;;;;;;;;;;5045905;28;19916;-86
2021/07/14 14:15:58;;;;;;;12.38;5.18;;;;;;;;;;5033812;28;20021;-86
2021/07/14 14:18:24;;;;;;;14.50;5.68;;;;;;;;;;5029056;28;20041;-84
2021/07/14 14:20:50;;;;;;;13.90;5.40;;;;;;;;;;5031477;28;20021;-84
2021/07/14 14:23:16;;;;;;;12.75;5.45;;;;;;;;;;5035987;28;20506;-83
2021/07/14 14:25:49;;;;;;;10.88;4.68;;;;;;;;;;5049146;28;20611;-85
2021/07/14 14:28:15;;;;;;;15.07;5.35;;;;;;;;;;5048154;28;20211;-84
2021/07/14 14:30:42;;;;;;;13.07;4.07;;;;;;;;;;5049563;28;20472;-84
2021/07/14 14:33:08;;;;;;;14.02;4.45;;;;;;;;;;5046722;28;20032;-85
2021/07/14 14:35:35;;;;;;;13.15;4.32;;;;;;;;;;5029080;28;20091;-85
2021/07/14 14:38:03;;;;;;;11.32;4.20;;;;;;;;;;5028599;28;20100;-86
2021/07/14 14:40:29;;;;;;;11.93;4.30;;;;;;;;;;5030223;28;20036;-85
2021/07/14 14:42:56;;;;;;;10.35;4.03;;;;;;;;;;5029806;28;20379;-85
2021/07/14 14:45:23;;;;;;;12.50;4.50;;;;;;;;;;5028590;28;20053;-85
2021/07/14 14:47:49;;;;;;;11.60;4.03;;;;;;;;;;5030387;28;20239;-85
2021/07/14 14:50:17;;;;;;;10.68;4.78;;;;;;;;;;5031489;28;20030;-85
2021/07/14 14:52:43;;;;;;;12.57;4.53;;;;;;;;;;5042894;28;20035;-85
2021/07/14 14:55:10;;;;;;;10.98;5.22;;;;;;;;;;5035442;28;20034;-86